createdAt,value
2023-05-24T00:03:21.674Z,6.28
2023-05-24T00:08:23.699Z,5.30
2023-05-24T00:13:25.444Z,5.32
2023-05-24T00:18:27.074Z,6.38
2023-05-24T00:23:28.690Z,6.38
2023-05-24T00:28:31.344Z,5.85
2023-05-24T00:33:33.043Z,4.45
2023-05-24T00:38:34.664Z,6.32
2023-05-24T00:43:37.169Z,7.38
2023-05-24T00:48:38.863Z,6.45
2023-05-24T00:53:44.653Z,4.05
2023-05-24T00:58:47.046Z,4.28
2023-05-24T01:03:49.067Z,3.60
2023-05-24T01:09:14.670Z,3.40
2023-05-24T01:14:31.646Z,5.15
2023-05-24T01:19:56.434Z,4.40
2023-05-24T01:25:19.367Z,2.90
2023-05-24T01:30:21.161Z,4.22
2023-05-24T01:35:23.784Z,3.00
2023-05-24T01:40:25.782Z,3.25
2023-05-24T01:45:46.215Z,3.83
2023-05-24T01:50:57.803Z,7.43
2023-05-24T01:56:02.994Z,3.30
2023-05-24T02:01:05.062Z,3.20
2023-05-24T02:06:08.140Z,3.78
2023-05-24T02:11:10.017Z,3.55
2023-05-24T02:16:11.718Z,4.28
2023-05-24T02:21:13.461Z,3.15
2023-05-24T02:26:17.704Z,4.40
2023-05-24T02:31:19.463Z,3.67
2023-05-24T02:36:23.508Z,3.53
2023-05-24T02:41:25.228Z,3.65
2023-05-24T02:46:27.284Z,2.83
2023-05-24T02:51:29.279Z,3.33
2023-05-24T02:56:30.955Z,4.10
2023-05-24T03:01:34.440Z,8.80
2023-05-24T03:06:38.087Z,3.22
2023-05-24T03:11:39.718Z,2.53
2023-05-24T03:16:41.675Z,3.58
2023-05-24T03:21:44.311Z,3.67
2023-05-24T03:26:45.999Z,3.97
2023-05-24T03:31:48.691Z,3.95
2023-05-24T03:36:50.417Z,4.00
2023-05-24T03:41:53.152Z,4.22
2023-05-24T03:46:55.873Z,3.55
2023-05-24T03:51:57.582Z,5.45
2023-05-24T03:56:59.347Z,6.32
2023-05-24T04:02:02.280Z,4.10
2023-05-24T04:07:05.109Z,3.50
2023-05-24T04:12:07.040Z,3.17
2023-05-24T04:17:09.164Z,4.07
2023-05-24T04:22:10.997Z,6.97
2023-05-24T04:27:13.052Z,3.65
2023-05-24T04:32:15.154Z,4.25
2023-05-24T04:37:17.350Z,4.90
2023-05-24T04:42:20.814Z,4.18
2023-05-24T04:47:22.697Z,4.40
2023-05-24T04:52:24.492Z,3.33
2023-05-24T04:57:26.240Z,6.05
2023-05-24T05:02:28.122Z,7.35
2023-05-24T05:07:29.882Z,3.45
2023-05-24T05:12:31.487Z,5.82
2023-05-24T05:17:33.123Z,3.97
2023-05-24T05:22:34.807Z,4.80
2023-05-24T05:27:36.417Z,4.00
2023-05-24T05:32:38.428Z,4.43
2023-05-24T05:37:40.561Z,3.25
2023-05-24T05:42:42.791Z,2.15
2023-05-24T05:47:45.050Z,3.85
2023-05-24T05:52:47.088Z,3.03
2023-05-24T05:57:48.750Z,1.95
2023-05-24T06:02:50.462Z,2.55
2023-05-24T06:07:52.137Z,6.30
2023-05-24T06:12:54.273Z,2.70
2023-05-24T06:17:56.161Z,2.08
2023-05-24T06:22:57.856Z,5.50
2023-05-24T06:27:59.493Z,1.48
2023-05-24T06:33:02.481Z,1.52
2023-05-24T06:38:04.205Z,1.65
2023-05-24T06:43:06.352Z,2.05
2023-05-24T06:48:08.260Z,2.67
2023-05-24T06:53:10.595Z,2.30
2023-05-24T06:58:14.471Z,3.13
2023-05-24T07:03:16.463Z,1.27
2023-05-24T07:08:18.144Z,1.17
2023-05-24T07:13:19.845Z,1.67
2023-05-24T07:18:21.717Z,2.03
2023-05-24T07:23:23.343Z,2.33
2023-05-24T07:28:25.023Z,2.50
2023-05-24T07:33:26.961Z,0.93
2023-05-24T07:38:30.118Z,2.85
2023-05-24T07:43:31.816Z,1.15
2023-05-24T07:48:33.433Z,0.60
2023-05-24T07:53:37.676Z,1.88
2023-05-24T07:58:41.328Z,2.30
2023-05-24T08:03:43.100Z,2.50
2023-05-24T08:08:45.944Z,0.40
2023-05-24T08:13:47.772Z,2.78
2023-05-24T08:18:49.411Z,2.33
2023-05-24T08:23:51.473Z,1.10
2023-05-24T08:28:53.141Z,2.50
2023-05-24T08:33:56.115Z,2.70
2023-05-24T08:38:59.686Z,2.13
2023-05-24T08:44:02.467Z,2.13
2023-05-24T08:49:04.645Z,2.97
2023-05-24T08:54:07.599Z,1.50
2023-05-24T08:59:10.402Z,2.72
2023-05-24T09:04:12.562Z,0.85
2023-05-24T09:09:18.604Z,1.15
2023-05-24T09:14:20.439Z,3.60
2023-05-24T09:19:22.146Z,1.58
2023-05-24T09:24:24.105Z,1.20
2023-05-24T09:29:26.230Z,6.25
2023-05-24T09:34:27.860Z,0.82
2023-05-24T09:39:30.153Z,1.13
2023-05-24T09:44:32.150Z,2.00
2023-05-24T09:49:37.080Z,1.20
2023-05-24T09:54:40.202Z,1.70
2023-05-24T09:59:42.942Z,1.85
2023-05-24T10:04:45.285Z,2.70
2023-05-24T10:09:47.195Z,2.33
2023-05-24T10:14:52.003Z,1.60
2023-05-24T10:19:53.657Z,2.45
2023-05-24T10:24:59.755Z,1.73
2023-05-24T10:35:38.131Z,4.25
2023-05-24T10:40:43.805Z,4.68
2023-05-24T10:41:49.913Z,2.03
2023-05-24T10:45:49.585Z,7.00
2023-05-24T10:50:52.060Z,3.60
2023-05-24T10:55:57.266Z,1.83
2023-05-24T11:00:58.888Z,2.63
2023-05-24T11:06:00.654Z,4.82
2023-05-24T11:11:19.163Z,5.00
2023-05-24T11:16:38.196Z,2.65
2023-05-24T11:21:43.552Z,4.43
2023-05-24T11:26:45.704Z,3.85
2023-05-24T11:31:49.093Z,3.08
2023-05-24T11:36:53.312Z,4.03
2023-05-24T11:41:55.099Z,3.25
2023-05-24T11:46:59.590Z,6.63
2023-05-24T11:52:01.851Z,2.88
2023-05-24T11:57:05.722Z,4.65
2023-05-24T12:02:08.926Z,3.55
2023-05-24T12:07:11.571Z,5.75
2023-05-24T12:12:13.236Z,3.88
2023-05-24T12:17:18.447Z,4.55
2023-05-24T12:22:20.093Z,5.35
2023-05-24T12:27:27.544Z,6.50
2023-05-24T12:32:29.485Z,4.32
2023-05-24T12:37:31.565Z,4.07
2023-05-24T12:42:33.399Z,4.85
2023-05-24T12:47:35.097Z,3.95
2023-05-24T12:52:36.775Z,3.50
2023-05-24T12:57:38.696Z,3.78
2023-05-24T13:02:40.642Z,4.63
2023-05-24T13:07:45.144Z,4.50
2023-05-24T13:12:47.132Z,4.05
2023-05-24T13:17:48.869Z,4.72
2023-05-24T13:22:51.321Z,9.93
2023-05-24T13:27:52.974Z,3.63
2023-05-24T13:32:55.894Z,3.35
2023-05-24T13:37:58.553Z,3.38
2023-05-24T13:43:00.319Z,4.65
2023-05-24T13:48:05.524Z,3.60
2023-05-24T13:53:07.267Z,2.83
2023-05-24T13:58:08.999Z,4.18
2023-05-24T14:03:13.060Z,5.20
2023-05-24T14:08:14.774Z,5.30
2023-05-24T14:13:48.475Z,7.18
2023-05-24T14:18:38.177Z,3.53
2023-05-24T14:23:39.824Z,3.42
2023-05-24T14:28:41.974Z,5.45
2023-05-24T14:33:43.861Z,3.47
2023-05-24T14:38:45.577Z,7.13
2023-05-24T14:43:47.442Z,4.53
2023-05-24T14:48:49.149Z,5.22
2023-05-24T14:53:51.058Z,8.77
2023-05-24T14:58:53.308Z,5.13
2023-05-24T15:03:56.105Z,4.55
2023-05-24T15:08:57.792Z,3.45
2023-05-24T15:14:00.990Z,9.07
2023-05-24T15:19:02.763Z,4.35
2023-05-24T15:24:04.705Z,6.40
2023-05-24T15:29:06.624Z,4.10
2023-05-24T15:34:08.513Z,4.68
2023-05-24T15:39:10.436Z,3.30
2023-05-24T15:44:12.316Z,5.93
2023-05-24T15:49:14.180Z,3.92
2023-05-24T15:54:16.078Z,4.20
2023-05-24T15:59:19.105Z,7.75
2023-05-24T16:04:22.568Z,5.38
2023-05-24T16:09:24.462Z,4.40
2023-05-24T16:14:26.187Z,5.30
2023-05-24T16:19:27.814Z,3.97
2023-05-24T16:24:29.493Z,3.88
2023-05-24T16:29:31.354Z,4.10
2023-05-24T16:34:41.664Z,4.28
2023-05-24T16:39:55.167Z,9.75
2023-05-24T16:44:56.897Z,5.05
2023-05-24T16:49:58.550Z,7.57
2023-05-24T16:55:00.213Z,8.07
2023-05-24T17:00:02.239Z,7.13
2023-05-24T17:05:04.026Z,7.70
2023-05-24T17:10:06.499Z,5.07
2023-05-24T17:15:08.708Z,5.50
2023-05-24T17:20:10.830Z,6.10
2023-05-24T17:25:12.512Z,6.95
2023-05-24T17:30:14.232Z,4.22
2023-05-24T17:35:15.963Z,7.15
2023-05-24T17:40:17.865Z,9.07
2023-05-24T17:45:19.493Z,4.38
2023-05-24T17:50:21.563Z,5.47
2023-05-24T17:55:23.227Z,4.28
2023-05-24T18:00:26.498Z,6.40
2023-05-24T18:05:28.158Z,4.47
2023-05-24T18:10:31.299Z,8.73
2023-05-24T18:15:32.928Z,7.30
2023-05-24T18:20:35.540Z,8.57
2023-05-24T18:25:37.234Z,7.50
2023-05-24T18:30:39.369Z,5.90
2023-05-24T18:35:41.135Z,4.70
2023-05-24T18:40:43.050Z,7.75
2023-05-24T18:45:44.893Z,4.55
2023-05-24T18:50:47.384Z,7.47
2023-05-24T18:55:49.061Z,8.82
2023-05-24T19:00:50.873Z,5.45
2023-05-24T19:05:52.597Z,5.85
2023-05-24T19:10:54.208Z,5.88
2023-05-24T19:15:56.569Z,7.78
2023-05-24T19:20:58.443Z,9.32
2023-05-24T19:26:00.154Z,4.47
2023-05-24T19:31:02.432Z,9.48
2023-05-24T19:36:04.272Z,5.00
2023-05-24T19:41:06.103Z,7.50
2023-05-24T19:46:07.821Z,5.43
2023-05-24T19:51:09.582Z,7.55
2023-05-24T19:56:11.514Z,10.15
2023-05-24T20:01:13.271Z,6.53
2023-05-24T20:06:16.500Z,7.00
2023-05-24T20:11:18.156Z,7.90
2023-05-24T20:16:19.915Z,6.00
2023-05-24T20:21:21.862Z,6.18
2023-05-24T20:26:23.492Z,6.60
2023-05-24T20:31:25.128Z,7.95
2023-05-24T20:36:26.752Z,6.45
2023-05-24T20:41:30.511Z,7.53
2023-05-24T20:46:32.420Z,6.18
2023-05-24T20:51:34.340Z,4.95
2023-05-24T20:56:36.380Z,5.82
2023-05-24T21:01:38.131Z,7.35
2023-05-24T21:06:39.906Z,6.18
2023-05-24T21:11:41.562Z,5.28
2023-05-24T21:16:44.058Z,5.43
2023-05-24T21:21:45.744Z,5.25
2023-05-24T21:26:48.576Z,8.00
2023-05-24T21:31:50.292Z,8.27
2023-05-24T21:36:51.934Z,8.55
2023-05-24T21:41:53.811Z,8.40
2023-05-24T21:46:55.966Z,6.28
2023-05-24T21:51:57.799Z,7.05
2023-05-24T21:56:59.517Z,9.68
2023-05-24T22:02:01.375Z,9.25
2023-05-24T22:07:03.200Z,8.85
2023-05-24T22:12:05.226Z,8.15
2023-05-24T22:17:06.861Z,10.70
2023-05-24T22:22:09.885Z,8.00
2023-05-24T22:27:13.637Z,12.15
2023-05-24T22:32:15.484Z,9.43
2023-05-24T22:37:17.196Z,10.93
2023-05-24T22:42:19.229Z,11.93
2023-05-24T22:47:21.932Z,8.32
2023-05-24T22:52:24.669Z,11.13
2023-05-24T22:57:26.416Z,8.30
2023-05-24T23:02:29.097Z,11.95
2023-05-24T23:07:30.984Z,10.95
2023-05-24T23:12:33.186Z,9.27
2023-05-24T23:17:34.892Z,10.63
2023-05-24T23:22:37.872Z,9.82
2023-05-24T23:27:40.753Z,16.13
2023-05-24T23:32:42.850Z,13.73
2023-05-24T23:37:44.520Z,9.70
2023-05-24T23:42:46.290Z,14.80
2023-05-24T23:47:47.955Z,12.65
2023-05-24T23:52:50.441Z,10.75
2023-05-24T23:57:53.814Z,11.10
